IBS17FB LEMD-LEIB
Flight info
| Callsign | IBS17FB |
|---|---|
| Flight time | N/A |
| Altitude | 30000 |
| Route | NANDO T257 FENXE/N0431F320 T257 LASPO Z224 VARUT |
| Aircraft | A320/M-SDE3FGHIRWY/LB1 |
Departure
| Time | N/A |
|---|---|
| Airport | Adolfo Suárez Madrid–Barajas Airport (LEMD) |
Arrival
| Time | 2026-05-05 21:01 |
|---|---|
| Airport | Ibiza Airport (LEIB) |
| Time | Latitude | Longitude | Altitude | Speed | Heading |
|---|---|---|---|---|---|
| 2026-05-05 20:54 | 38.98778 | 1.81612 | 5472 ft | 262 kts | 182° |
| 2026-05-05 20:54 | 38.96955 | 1.81042 | 4844 ft | 254 kts | 213° |
| 2026-05-05 20:55 | 38.95671 | 1.79452 | 4342 ft | 247 kts | 242° |
| 2026-05-05 20:55 | 38.95275 | 1.78178 | 4237 ft | 239 kts | 258° |
| 2026-05-05 20:55 | 38.95294 | 1.75275 | 4013 ft | 226 kts | 275° |
| 2026-05-05 20:55 | 38.95461 | 1.73208 | 3845 ft | 218 kts | 275° |
| 2026-05-05 20:56 | 38.95569 | 1.71852 | 3701 ft | 215 kts | 275° |
| 2026-05-05 20:56 | 38.95775 | 1.69157 | 3314 ft | 213 kts | 274° |
| 2026-05-05 20:56 | 38.95923 | 1.67167 | 3126 ft | 207 kts | 274° |
| 2026-05-05 20:56 | 38.96065 | 1.65229 | 2992 ft | 197 kts | 274° |
| 2026-05-05 20:57 | 38.96195 | 1.63455 | 2974 ft | 181 kts | 274° |
| 2026-05-05 20:57 | 38.96279 | 1.62285 | 3070 ft | 180 kts | 274° |
| 2026-05-05 20:57 | 38.96288 | 1.59988 | 3004 ft | 177 kts | 258° |
| 2026-05-05 20:57 | 38.95888 | 1.58372 | 2993 ft | 178 kts | 248° |
| 2026-05-05 20:58 | 38.95343 | 1.56818 | 2985 ft | 178 kts | 244° |
| 2026-05-05 20:58 | 38.94741 | 1.55270 | 2823 ft | 178 kts | 242° |
| 2026-05-05 20:58 | 38.94131 | 1.53783 | 2575 ft | 176 kts | 242° |
| 2026-05-05 20:58 | 38.93517 | 1.52313 | 2331 ft | 175 kts | 241° |
| 2026-05-05 20:59 | 38.92891 | 1.50814 | 2084 ft | 175 kts | 241° |
| 2026-05-05 20:59 | 38.92257 | 1.49295 | 1833 ft | 173 kts | 241° |
| 2026-05-05 20:59 | 38.91620 | 1.47764 | 1577 ft | 172 kts | 241° |
| 2026-05-05 20:59 | 38.91037 | 1.46361 | 1329 ft | 164 kts | 241° |
| 2026-05-05 21:00 | 38.90844 | 1.45896 | 1259 ft | 158 kts | 241° |
| 2026-05-05 21:00 | 38.90000 | 1.43862 | 897 ft | 134 kts | 241° |
| 2026-05-05 21:00 | 38.89517 | 1.42715 | 718 ft | 132 kts | 242° |
| 2026-05-05 21:00 | 38.89049 | 1.41582 | 547 ft | 132 kts | 242° |
| 2026-05-05 21:01 | 38.88575 | 1.40437 | 352 ft | 131 kts | 242° |
| 2026-05-05 21:01 | 38.88110 | 1.39311 | 161 ft | 130 kts | 242° |
| 2026-05-05 21:01 | 38.87651 | 1.38200 | 30 ft | 123 kts | 242° |
| 2026-05-05 21:01 | 38.87305 | 1.37360 | 29 ft | 48 kts | 244° |
| 2026-05-05 21:02 | 38.87258 | 1.37069 | 28 ft | 21 kts | 275° |
| 2026-05-05 21:02 | 38.87271 | 1.36889 | 28 ft | 15 kts | 306° |
| 2026-05-05 21:02 | 38.87362 | 1.36814 | 28 ft | 11 kts | 334° |
| 2026-05-05 21:02 | 38.87435 | 1.36767 | 28 ft | 4 kts | 342° |
| 2026-05-05 21:03 | 38.87451 | 1.36755 | 28 ft | 3 kts | 326° |
| 2026-05-05 21:03 | 38.87479 | 1.36736 | 28 ft | 5 kts | 332° |
| 2026-05-05 21:03 | 38.87491 | 1.36736 | 28 ft | 1 kts | 38° |
| 2026-05-05 21:03 | 38.87495 | 1.36740 | 28 ft | 0 kts | 34° |